Big Sur, CA (93920)

2:16 AM PDT on September 20, 2014 (GMT -0700)
Cachagua | Change Station
CLOSE
Current Station
Personal Weather Station
Location: Carmel Valley, CA
Elevation: 850 ft
Nearby Weather Stations

Elev 850 ft 36.40 °N, 121.65 °W | Updated 9 seconds ago

Mostly Cloudy
Mostly Cloudy
54.5 °F
Feels Like 54.5 °F
N
0.0
Wind Variable Wind from North
Gusts 0.0 mph

Today
High -- | Low -- °F
--% Chance of Precip.
Yesterday
High -- | Low -- °F
Precip. -- in
6:53 AM 7:06 PM
Waning Crescent, 13% visible
Pressure 29.95 in
Visibility 10.0 miles
Clouds Overcast 400 ft
Dew Point 51 °F
Humidity 89%
Rainfall 0.00 in
Snow Depth Not available.
UV 0 out of 12
Pollen 4.70 out of 12
Air Quality Not available.
Flu Activity Not available.
METAR KMRY 200854Z AUTO 24004KT 10SM OVC004 17/16 A2991 RMK AO2 SLP140 T01720156 58002

More Conditions Fewer Conditions

Pressure 29.95 in
Visibility 10.0 miles
Clouds Overcast 400 ft
Dew Point 51 °F
Humidity 89%
Rainfall 0.00 in
Snow Depth Not available.
UV 0 out of 12
Pollen 4.70 out of 12
Air Quality Not available.
Flu Activity Not available.
METAR KMRY 200854Z AUTO 24004KT 10SM OVC004 17/16 A2991 RMK AO2 SLP140 T01720156 58002

More Conditions Fewer Conditions

10-Day Weather Forecast

Almanac

Astronomy

Sep. 20, 2014 Rise Set
Actual Time 6:53 AM PDT 7:06 PM PDT
Civil Twilight 6:27 AM PDT 7:31 PM PDT
Nautical Twilight 5:57 AM PDT 8:01 PM PDT
Astronomical Twilight 5:26 AM PDT 8:32 PM PDT
Moon 3:41 AM PDT 5:08 PM PDT
Length of Visible Light 13h 04m
Length of Day
12h 13m
Tomorrow will be 2m 16s shorter.
Waning Crescent, 13% of the Moon is Illuminated
Today
Waning Crescent
Sep 24
New
Oct 1
First Quarter
Oct 8
Full
Oct 15
Last Quarter

Today's Extremes

State Highs State Lows

Community

WunderPhotos

Upload Photos

1,754,794 photos uploaded!

WunderBlogs® & News

Nearby

Snow Depth

Station Depth Elevation
Spratt Creek 1 in 6200 ft
Fallen Leaf 0 in 6300 ft
Adin Mountain 0 in 6200 ft
Heavenly Valley 0 in 8850 ft
Sonora Pass 0 in 8800 ft

Earthquake Activity

City Distance Mag. Time & Date
Livermore, California 106 miles 2.6 3:37 AM PDT
2014-09-19
Minimum magnitude displayed is 2.5.

Coastal Water Temperatures

Place Temperature
Monterey, CA 63.0 °F
Port San Luis, CA 61.0 °F

Nearby Weather Stations